sensor_id;sensor_type;location;lat;lon;timestamp;P1;durP1;ratioP1;P2;durP2;ratioP2
48578;SDS011;34357;51.948;6.132;2022-11-20T00:00:46;33.37;;;22.93;;
48578;SDS011;34357;51.948;6.132;2022-11-20T00:03:12;32.00;;;21.50;;
48578;SDS011;34357;51.948;6.132;2022-11-20T00:05:38;26.47;;;19.40;;
48578;SDS011;34357;51.948;6.132;2022-11-20T00:08:03;29.07;;;19.10;;
48578;SDS011;34357;51.948;6.132;2022-11-20T00:10:30;30.73;;;20.30;;
48578;SDS011;34357;51.948;6.132;2022-11-20T00:12:57;30.47;;;19.80;;
48578;SDS011;34357;51.948;6.132;2022-11-20T00:15:23;27.70;;;18.90;;
48578;SDS011;34357;51.948;6.132;2022-11-20T00:17:49;25.93;;;18.13;;
48578;SDS011;34357;51.948;6.132;2022-11-20T00:20:15;29.03;;;19.67;;
48578;SDS011;34357;51.948;6.132;2022-11-20T00:22:41;28.40;;;20.27;;
48578;SDS011;34357;51.948;6.132;2022-11-20T00:25:07;28.83;;;20.53;;
48578;SDS011;34357;51.948;6.132;2022-11-20T00:27:32;30.57;;;20.13;;
48578;SDS011;34357;51.948;6.132;2022-11-20T00:29:58;33.03;;;21.17;;
48578;SDS011;34357;51.948;6.132;2022-11-20T00:32:24;32.53;;;20.93;;
48578;SDS011;34357;51.948;6.132;2022-11-20T00:34:49;33.47;;;20.67;;
48578;SDS011;34357;51.948;6.132;2022-11-20T00:37:15;34.17;;;21.17;;
48578;SDS011;34357;51.948;6.132;2022-11-20T00:39:41;30.77;;;19.87;;
48578;SDS011;34357;51.948;6.132;2022-11-20T00:42:06;31.17;;;20.30;;
48578;SDS011;34357;51.948;6.132;2022-11-20T00:44:32;30.90;;;20.90;;
48578;SDS011;34357;51.948;6.132;2022-11-20T00:46:58;29.87;;;20.47;;
48578;SDS011;34357;51.948;6.132;2022-11-20T00:49:23;31.83;;;20.30;;
48578;SDS011;34357;51.948;6.132;2022-11-20T00:51:49;30.30;;;20.10;;
48578;SDS011;34357;51.948;6.132;2022-11-20T00:54:15;31.37;;;20.87;;
48578;SDS011;34357;51.948;6.132;2022-11-20T00:56:40;37.50;;;23.63;;
48578;SDS011;34357;51.948;6.132;2022-11-20T00:59:06;33.07;;;21.47;;
48578;SDS011;34357;51.948;6.132;2022-11-20T01:01:33;35.00;;;22.50;;
48578;SDS011;34357;51.948;6.132;2022-11-20T01:04:00;33.53;;;21.50;;
48578;SDS011;34357;51.948;6.132;2022-11-20T01:06:33;36.83;;;22.63;;
48578;SDS011;34357;51.948;6.132;2022-11-20T01:09:03;30.73;;;20.87;;
48578;SDS011;34357;51.948;6.132;2022-11-20T01:11:34;64.03;;;35.87;;
48578;SDS011;34357;51.948;6.132;2022-11-20T01:14:02;46.63;;;27.17;;
48578;SDS011;34357;51.948;6.132;2022-11-20T01:16:33;38.23;;;23.33;;
48578;SDS011;34357;51.948;6.132;2022-11-20T01:19:04;35.83;;;23.10;;
48578;SDS011;34357;51.948;6.132;2022-11-20T01:21:33;35.67;;;23.80;;
48578;SDS011;34357;51.948;6.132;2022-11-20T01:24:00;34.47;;;22.83;;
48578;SDS011;34357;51.948;6.132;2022-11-20T01:26:28;32.93;;;22.90;;
48578;SDS011;34357;51.948;6.132;2022-11-20T01:28:55;34.33;;;22.03;;
48578;SDS011;34357;51.948;6.132;2022-11-20T01:34:07;31.37;;;21.23;;
48578;SDS011;34357;51.948;6.132;2022-11-20T01:36:35;32.63;;;22.03;;
48578;SDS011;34357;51.948;6.132;2022-11-20T01:39:04;34.73;;;21.50;;
48578;SDS011;34357;51.948;6.132;2022-11-20T01:41:41;29.27;;;20.17;;
48578;SDS011;34357;51.948;6.132;2022-11-20T01:47:48;30.17;;;20.13;;
48578;SDS011;34357;51.948;6.132;2022-11-20T01:50:14;31.00;;;19.53;;
48578;SDS011;34357;51.948;6.132;2022-11-20T01:55:26;28.00;;;19.10;;
48578;SDS011;34357;51.948;6.132;2022-11-20T01:57:55;32.57;;;20.33;;
48578;SDS011;34357;51.948;6.132;2022-11-20T02:00:23;30.27;;;19.80;;
48578;SDS011;34357;51.948;6.132;2022-11-20T02:02:53;29.83;;;19.70;;
48578;SDS011;34357;51.948;6.132;2022-11-20T02:07:59;30.33;;;19.37;;
48578;SDS011;34357;51.948;6.132;2022-11-20T02:10:26;27.80;;;18.47;;
48578;SDS011;34357;51.948;6.132;2022-11-20T02:12:53;29.23;;;18.77;;
48578;SDS011;34357;51.948;6.132;2022-11-20T02:15:37;33.17;;;18.97;;
48578;SDS011;34357;51.948;6.132;2022-11-20T02:18:04;26.53;;;18.20;;
48578;SDS011;34357;51.948;6.132;2022-11-20T02:20:31;29.30;;;19.13;;
48578;SDS011;34357;51.948;6.132;2022-11-20T02:25:37;27.77;;;18.67;;
48578;SDS011;34357;51.948;6.132;2022-11-20T02:28:04;30.37;;;19.63;;
48578;SDS011;34357;51.948;6.132;2022-11-20T02:30:30;28.70;;;18.77;;
48578;SDS011;34357;51.948;6.132;2022-11-20T02:32:57;29.57;;;18.03;;
48578;SDS011;34357;51.948;6.132;2022-11-20T02:37:49;29.53;;;17.93;;
48578;SDS011;34357;51.948;6.132;2022-11-20T02:40:18;27.60;;;19.03;;
48578;SDS011;34357;51.948;6.132;2022-11-20T02:42:44;28.63;;;18.33;;
48578;SDS011;34357;51.948;6.132;2022-11-20T02:45:09;28.20;;;18.70;;
48578;SDS011;34357;51.948;6.132;2022-11-20T02:47:35;28.40;;;18.60;;
48578;SDS011;34357;51.948;6.132;2022-11-20T02:50:01;28.90;;;18.67;;
48578;SDS011;34357;51.948;6.132;2022-11-20T02:52:28;30.13;;;18.20;;
48578;SDS011;34357;51.948;6.132;2022-11-20T02:54:53;29.53;;;18.53;;
48578;SDS011;34357;51.948;6.132;2022-11-20T02:57:19;29.47;;;18.87;;
48578;SDS011;34357;51.948;6.132;2022-11-20T02:59:45;30.83;;;19.23;;
48578;SDS011;34357;51.948;6.132;2022-11-20T03:02:10;30.87;;;19.13;;
48578;SDS011;34357;51.948;6.132;2022-11-20T03:04:36;32.90;;;20.47;;
48578;SDS011;34357;51.948;6.132;2022-11-20T03:07:02;28.53;;;18.07;;
48578;SDS011;34357;51.948;6.132;2022-11-20T03:09:28;28.80;;;18.03;;
48578;SDS011;34357;51.948;6.132;2022-11-20T03:11:54;27.57;;;17.73;;
48578;SDS011;34357;51.948;6.132;2022-11-20T03:14:19;30.77;;;20.13;;
48578;SDS011;34357;51.948;6.132;2022-11-20T03:16:45;29.27;;;19.13;;
48578;SDS011;34357;51.948;6.132;2022-11-20T03:19:11;26.40;;;17.57;;
48578;SDS011;34357;51.948;6.132;2022-11-20T03:21:37;27.83;;;19.33;;
48578;SDS011;34357;51.948;6.132;2022-11-20T03:24:03;30.10;;;19.77;;
48578;SDS011;34357;51.948;6.132;2022-11-20T03:26:29;28.50;;;19.30;;
48578;SDS011;34357;51.948;6.132;2022-11-20T03:28:58;30.30;;;18.70;;
48578;SDS011;34357;51.948;6.132;2022-11-20T03:31:27;28.73;;;19.05;;
48578;SDS011;34357;51.948;6.132;2022-11-20T03:33:55;30.20;;;19.53;;
48578;SDS011;34357;51.948;6.132;2022-11-20T03:36:21;28.93;;;18.57;;
48578;SDS011;34357;51.948;6.132;2022-11-20T03:38:48;30.67;;;19.10;;
48578;SDS011;34357;51.948;6.132;2022-11-20T03:41:16;28.37;;;19.17;;
48578;SDS011;34357;51.948;6.132;2022-11-20T03:43:49;28.60;;;18.73;;
48578;SDS011;34357;51.948;6.132;2022-11-20T03:46:17;29.33;;;19.40;;
48578;SDS011;34357;51.948;6.132;2022-11-20T03:48:42;27.60;;;18.37;;
48578;SDS011;34357;51.948;6.132;2022-11-20T03:51:12;29.20;;;18.40;;
48578;SDS011;34357;51.948;6.132;2022-11-20T03:53:40;32.03;;;19.50;;
48578;SDS011;34357;51.948;6.132;2022-11-20T03:56:07;27.93;;;18.13;;
48578;SDS011;34357;51.948;6.132;2022-11-20T03:58:35;26.37;;;18.07;;
48578;SDS011;34357;51.948;6.132;2022-11-20T04:01:12;31.93;;;19.33;;
48578;SDS011;34357;51.948;6.132;2022-11-20T04:03:39;27.27;;;18.10;;
48578;SDS011;34357;51.948;6.132;2022-11-20T04:06:16;30.27;;;19.77;;
48578;SDS011;34357;51.948;6.132;2022-11-20T04:08:46;28.33;;;18.07;;
48578;SDS011;34357;51.948;6.132;2022-11-20T04:13:47;29.55;;;18.92;;
48578;SDS011;34357;51.948;6.132;2022-11-20T04:16:18;29.63;;;18.67;;
48578;SDS011;34357;51.948;6.132;2022-11-20T04:18:44;26.43;;;17.63;;
48578;SDS011;34357;51.948;6.132;2022-11-20T04:21:10;28.50;;;18.53;;
48578;SDS011;34357;51.948;6.132;2022-11-20T04:23:36;26.90;;;17.60;;
48578;SDS011;34357;51.948;6.132;2022-11-20T04:26:07;29.57;;;19.53;;
48578;SDS011;34357;51.948;6.132;2022-11-20T04:28:34;29.17;;;18.37;;
48578;SDS011;34357;51.948;6.132;2022-11-20T04:31:10;28.10;;;17.53;;
48578;SDS011;34357;51.948;6.132;2022-11-20T04:33:39;29.73;;;18.67;;
48578;SDS011;34357;51.948;6.132;2022-11-20T04:38:33;30.53;;;19.03;;
48578;SDS011;34357;51.948;6.132;2022-11-20T04:40:59;26.57;;;17.50;;
48578;SDS011;34357;51.948;6.132;2022-11-20T04:43:26;30.43;;;17.80;;
48578;SDS011;34357;51.948;6.132;2022-11-20T04:45:53;28.23;;;18.03;;
48578;SDS011;34357;51.948;6.132;2022-11-20T04:48:20;27.37;;;18.57;;
48578;SDS011;34357;51.948;6.132;2022-11-20T04:50:46;29.10;;;18.10;;
48578;SDS011;34357;51.948;6.132;2022-11-20T04:53:11;25.57;;;17.53;;
48578;SDS011;34357;51.948;6.132;2022-11-20T04:55:37;28.10;;;17.97;;
48578;SDS011;34357;51.948;6.132;2022-11-20T04:58:03;32.73;;;18.73;;
48578;SDS011;34357;51.948;6.132;2022-11-20T05:00:28;27.90;;;18.00;;
48578;SDS011;34357;51.948;6.132;2022-11-20T05:02:54;28.93;;;18.93;;
48578;SDS011;34357;51.948;6.132;2022-11-20T05:05:20;29.10;;;18.40;;
48578;SDS011;34357;51.948;6.132;2022-11-20T05:07:45;27.80;;;17.97;;
48578;SDS011;34357;51.948;6.132;2022-11-20T05:10:11;27.53;;;18.37;;
48578;SDS011;34357;51.948;6.132;2022-11-20T05:12:37;34.43;;;18.97;;
48578;SDS011;34357;51.948;6.132;2022-11-20T05:15:02;31.70;;;20.00;;
48578;SDS011;34357;51.948;6.132;2022-11-20T05:17:28;31.70;;;19.20;;
48578;SDS011;34357;51.948;6.132;2022-11-20T05:19:54;28.00;;;18.03;;
48578;SDS011;34357;51.948;6.132;2022-11-20T05:22:20;31.43;;;19.17;;
48578;SDS011;34357;51.948;6.132;2022-11-20T05:24:45;32.93;;;18.73;;
48578;SDS011;34357;51.948;6.132;2022-11-20T05:27:11;35.83;;;19.87;;
48578;SDS011;34357;51.948;6.132;2022-11-20T05:29:37;36.80;;;20.47;;
48578;SDS011;34357;51.948;6.132;2022-11-20T05:32:02;34.83;;;20.63;;
48578;SDS011;34357;51.948;6.132;2022-11-20T05:34:28;34.80;;;20.37;;
48578;SDS011;34357;51.948;6.132;2022-11-20T05:36:54;35.13;;;20.67;;
48578;SDS011;34357;51.948;6.132;2022-11-20T05:39:19;36.40;;;20.70;;
48578;SDS011;34357;51.948;6.132;2022-11-20T05:41:45;37.80;;;21.87;;
48578;SDS011;34357;51.948;6.132;2022-11-20T05:44:11;34.17;;;20.23;;
48578;SDS011;34357;51.948;6.132;2022-11-20T05:46:37;36.40;;;21.00;;
48578;SDS011;34357;51.948;6.132;2022-11-20T05:49:03;34.67;;;20.77;;
48578;SDS011;34357;51.948;6.132;2022-11-20T05:51:29;36.40;;;20.53;;
48578;SDS011;34357;51.948;6.132;2022-11-20T05:53:58;35.43;;;21.87;;
48578;SDS011;34357;51.948;6.132;2022-11-20T05:56:23;31.87;;;20.27;;
48578;SDS011;34357;51.948;6.132;2022-11-20T05:58:49;36.03;;;21.33;;
48578;SDS011;34357;51.948;6.132;2022-11-20T06:01:22;34.10;;;20.83;;
48578;SDS011;34357;51.948;6.132;2022-11-20T06:03:49;31.83;;;19.77;;
48578;SDS011;34357;51.948;6.132;2022-11-20T06:06:16;28.33;;;18.43;;
48578;SDS011;34357;51.948;6.132;2022-11-20T06:08:42;30.33;;;19.30;;
48578;SDS011;34357;51.948;6.132;2022-11-20T06:11:09;31.03;;;19.90;;
48578;SDS011;34357;51.948;6.132;2022-11-20T06:13:36;33.10;;;20.30;;
48578;SDS011;34357;51.948;6.132;2022-11-20T06:16:02;32.60;;;21.03;;
48578;SDS011;34357;51.948;6.132;2022-11-20T06:18:28;33.17;;;20.47;;
48578;SDS011;34357;51.948;6.132;2022-11-20T06:21:08;33.10;;;20.47;;
48578;SDS011;34357;51.948;6.132;2022-11-20T06:23:36;32.80;;;20.45;;
48578;SDS011;34357;51.948;6.132;2022-11-20T06:26:06;29.07;;;19.83;;
48578;SDS011;34357;51.948;6.132;2022-11-20T06:28:33;33.67;;;21.77;;
48578;SDS011;34357;51.948;6.132;2022-11-20T06:30:58;30.37;;;20.57;;
48578;SDS011;34357;51.948;6.132;2022-11-20T06:33:24;31.93;;;20.40;;
48578;SDS011;34357;51.948;6.132;2022-11-20T06:35:50;30.73;;;20.27;;
48578;SDS011;34357;51.948;6.132;2022-11-20T06:38:16;35.77;;;20.67;;
48578;SDS011;34357;51.948;6.132;2022-11-20T06:40:42;35.03;;;21.00;;
48578;SDS011;34357;51.948;6.132;2022-11-20T06:43:11;32.10;;;20.13;;
48578;SDS011;34357;51.948;6.132;2022-11-20T06:45:36;30.40;;;19.30;;
48578;SDS011;34357;51.948;6.132;2022-11-20T06:48:02;31.37;;;19.93;;
48578;SDS011;34357;51.948;6.132;2022-11-20T06:50:28;30.43;;;19.47;;
48578;SDS011;34357;51.948;6.132;2022-11-20T06:52:54;32.40;;;20.57;;
48578;SDS011;34357;51.948;6.132;2022-11-20T06:55:20;35.63;;;21.07;;
48578;SDS011;34357;51.948;6.132;2022-11-20T06:57:46;33.00;;;20.20;;
48578;SDS011;34357;51.948;6.132;2022-11-20T07:00:12;31.53;;;19.90;;
48578;SDS011;34357;51.948;6.132;2022-11-20T07:02:38;31.20;;;20.33;;
48578;SDS011;34357;51.948;6.132;2022-11-20T07:05:04;33.47;;;20.63;;
48578;SDS011;34357;51.948;6.132;2022-11-20T07:07:30;34.03;;;21.03;;
48578;SDS011;34357;51.948;6.132;2022-11-20T07:09:55;34.77;;;20.57;;
48578;SDS011;34357;51.948;6.132;2022-11-20T07:12:21;33.40;;;21.37;;
48578;SDS011;34357;51.948;6.132;2022-11-20T07:14:47;33.50;;;21.37;;
48578;SDS011;34357;51.948;6.132;2022-11-20T07:17:12;35.77;;;21.20;;
48578;SDS011;34357;51.948;6.132;2022-11-20T07:19:38;33.67;;;21.53;;
48578;SDS011;34357;51.948;6.132;2022-11-20T07:22:04;37.33;;;22.77;;
48578;SDS011;34357;51.948;6.132;2022-11-20T07:24:29;38.50;;;23.20;;
48578;SDS011;34357;51.948;6.132;2022-11-20T07:26:55;36.47;;;22.67;;
48578;SDS011;34357;51.948;6.132;2022-11-20T07:29:21;37.00;;;23.47;;
48578;SDS011;34357;51.948;6.132;2022-11-20T07:31:46;37.50;;;22.83;;
48578;SDS011;34357;51.948;6.132;2022-11-20T07:34:12;36.50;;;21.67;;
48578;SDS011;34357;51.948;6.132;2022-11-20T07:36:37;35.90;;;21.87;;
48578;SDS011;34357;51.948;6.132;2022-11-20T07:39:04;34.53;;;22.93;;
48578;SDS011;34357;51.948;6.132;2022-11-20T07:41:30;38.67;;;22.70;;
48578;SDS011;34357;51.948;6.132;2022-11-20T07:43:56;35.67;;;23.40;;
48578;SDS011;34357;51.948;6.132;2022-11-20T07:46:21;41.83;;;25.33;;
48578;SDS011;34357;51.948;6.132;2022-11-20T07:48:47;35.63;;;23.13;;
48578;SDS011;34357;51.948;6.132;2022-11-20T07:51:13;40.57;;;24.10;;
48578;SDS011;34357;51.948;6.132;2022-11-20T07:53:38;37.50;;;23.90;;
48578;SDS011;34357;51.948;6.132;2022-11-20T07:56:04;44.03;;;25.37;;
48578;SDS011;34357;51.948;6.132;2022-11-20T07:58:30;39.40;;;25.60;;
48578;SDS011;34357;51.948;6.132;2022-11-20T08:00:58;41.20;;;25.17;;
48578;SDS011;34357;51.948;6.132;2022-11-20T08:03:30;37.47;;;24.50;;
48578;SDS011;34357;51.948;6.132;2022-11-20T08:05:58;42.20;;;25.93;;
48578;SDS011;34357;51.948;6.132;2022-11-20T08:08:25;40.77;;;24.17;;
48578;SDS011;34357;51.948;6.132;2022-11-20T08:10:52;38.77;;;24.70;;
48578;SDS011;34357;51.948;6.132;2022-11-20T08:13:17;42.17;;;26.20;;
48578;SDS011;34357;51.948;6.132;2022-11-20T08:16:01;38.83;;;25.20;;
48578;SDS011;34357;51.948;6.132;2022-11-20T08:18:27;42.13;;;25.60;;
48578;SDS011;34357;51.948;6.132;2022-11-20T08:20:53;39.20;;;25.80;;
48578;SDS011;34357;51.948;6.132;2022-11-20T08:23:18;42.27;;;26.20;;
48578;SDS011;34357;51.948;6.132;2022-11-20T08:25:48;44.47;;;27.40;;
48578;SDS011;34357;51.948;6.132;2022-11-20T08:28:14;39.90;;;25.97;;
48578;SDS011;34357;51.948;6.132;2022-11-20T08:30:40;37.70;;;24.70;;
48578;SDS011;34357;51.948;6.132;2022-11-20T08:33:07;39.87;;;25.87;;
48578;SDS011;34357;51.948;6.132;2022-11-20T08:35:34;35.03;;;23.90;;
48578;SDS011;34357;51.948;6.132;2022-11-20T08:38:02;38.37;;;25.30;;
48578;SDS011;34357;51.948;6.132;2022-11-20T08:40:28;37.93;;;25.23;;
48578;SDS011;34357;51.948;6.132;2022-11-20T08:42:54;39.87;;;25.53;;
48578;SDS011;34357;51.948;6.132;2022-11-20T08:45:20;37.40;;;25.17;;
48578;SDS011;34357;51.948;6.132;2022-11-20T08:47:45;39.73;;;26.27;;
48578;SDS011;34357;51.948;6.132;2022-11-20T08:50:12;39.60;;;25.87;;
48578;SDS011;34357;51.948;6.132;2022-11-20T08:52:39;37.17;;;25.73;;
48578;SDS011;34357;51.948;6.132;2022-11-20T08:55:05;36.37;;;24.33;;
48578;SDS011;34357;51.948;6.132;2022-11-20T08:57:32;40.93;;;25.80;;
48578;SDS011;34357;51.948;6.132;2022-11-20T08:59:58;37.83;;;25.70;;
48578;SDS011;34357;51.948;6.132;2022-11-20T09:02:24;40.60;;;26.63;;
48578;SDS011;34357;51.948;6.132;2022-11-20T09:04:49;43.93;;;28.13;;
48578;SDS011;34357;51.948;6.132;2022-11-20T09:07:15;45.43;;;28.97;;
48578;SDS011;34357;51.948;6.132;2022-11-20T09:09:41;51.23;;;30.83;;
48578;SDS011;34357;51.948;6.132;2022-11-20T09:12:07;51.97;;;30.70;;
48578;SDS011;34357;51.948;6.132;2022-11-20T09:14:32;45.53;;;30.13;;
48578;SDS011;34357;51.948;6.132;2022-11-20T09:16:59;48.70;;;30.93;;
48578;SDS011;34357;51.948;6.132;2022-11-20T09:19:25;42.50;;;28.37;;
48578;SDS011;34357;51.948;6.132;2022-11-20T09:21:51;50.97;;;31.83;;
48578;SDS011;34357;51.948;6.132;2022-11-20T09:24:17;43.23;;;28.37;;
48578;SDS011;34357;51.948;6.132;2022-11-20T09:26:43;43.27;;;28.23;;
48578;SDS011;34357;51.948;6.132;2022-11-20T09:29:09;43.73;;;27.40;;
48578;SDS011;34357;51.948;6.132;2022-11-20T09:31:34;42.90;;;26.67;;
48578;SDS011;34357;51.948;6.132;2022-11-20T09:34:00;44.23;;;28.07;;
48578;SDS011;34357;51.948;6.132;2022-11-20T09:36:26;40.87;;;26.97;;
48578;SDS011;34357;51.948;6.132;2022-11-20T09:38:52;40.10;;;26.40;;
48578;SDS011;34357;51.948;6.132;2022-11-20T09:46:59;39.77;;;26.90;;
48578;SDS011;34357;51.948;6.132;2022-11-20T09:53:13;40.70;;;27.03;;
48578;SDS011;34357;51.948;6.132;2022-11-20T09:55:38;44.77;;;29.37;;
48578;SDS011;34357;51.948;6.132;2022-11-20T09:58:12;46.43;;;29.17;;
48578;SDS011;34357;51.948;6.132;2022-11-20T10:01:10;47.50;;;30.00;;
48578;SDS011;34357;51.948;6.132;2022-11-20T10:06:32;54.72;;;32.22;;
48578;SDS011;34357;51.948;6.132;2022-11-20T10:09:36;52.80;;;34.43;;
48578;SDS011;34357;51.948;6.132;2022-11-20T10:20:30;56.03;;;36.15;;
48578;SDS011;34357;51.948;6.132;2022-11-20T10:26:42;53.87;;;36.10;;
48578;SDS011;34357;51.948;6.132;2022-11-20T10:31:45;56.90;;;36.03;;
48578;SDS011;34357;51.948;6.132;2022-11-20T10:36:47;57.47;;;36.90;;
48578;SDS011;34357;51.948;6.132;2022-11-20T10:41:50;56.50;;;35.67;;
48578;SDS011;34357;51.948;6.132;2022-11-20T10:44:19;55.27;;;35.97;;
48578;SDS011;34357;51.948;6.132;2022-11-20T10:47:11;54.87;;;36.50;;
48578;SDS011;34357;51.948;6.132;2022-11-20T10:49:42;54.37;;;36.50;;
48578;SDS011;34357;51.948;6.132;2022-11-20T10:52:18;58.57;;;37.27;;
48578;SDS011;34357;51.948;6.132;2022-11-20T10:55:06;56.60;;;35.67;;
48578;SDS011;34357;51.948;6.132;2022-11-20T11:00:19;54.60;;;33.90;;
48578;SDS011;34357;51.948;6.132;2022-11-20T11:02:49;47.27;;;32.00;;
48578;SDS011;34357;51.948;6.132;2022-11-20T11:07:59;47.80;;;32.97;;
48578;SDS011;34357;51.948;6.132;2022-11-20T11:10:40;47.53;;;31.97;;
48578;SDS011;34357;51.948;6.132;2022-11-20T11:13:18;48.00;;;34.00;;
48578;SDS011;34357;51.948;6.132;2022-11-20T11:15:49;52.53;;;33.45;;
48578;SDS011;34357;51.948;6.132;2022-11-20T11:18:25;50.88;;;33.65;;
48578;SDS011;34357;51.948;6.132;2022-11-20T11:20:52;50.47;;;33.63;;
48578;SDS011;34357;51.948;6.132;2022-11-20T11:23:30;49.17;;;34.07;;
48578;SDS011;34357;51.948;6.132;2022-11-20T11:26:03;44.60;;;30.60;;
48578;SDS011;34357;51.948;6.132;2022-11-20T11:28:31;38.03;;;27.80;;
48578;SDS011;34357;51.948;6.132;2022-11-20T11:30:57;48.05;;;32.72;;
48578;SDS011;34357;51.948;6.132;2022-11-20T11:33:27;50.60;;;31.02;;
48578;SDS011;34357;51.948;6.132;2022-11-20T11:35:55;50.83;;;31.90;;
48578;SDS011;34357;51.948;6.132;2022-11-20T11:38:37;41.43;;;28.97;;
48578;SDS011;34357;51.948;6.132;2022-11-20T11:41:09;39.92;;;27.40;;
48578;SDS011;34357;51.948;6.132;2022-11-20T11:43:40;34.70;;;24.25;;
48578;SDS011;34357;51.948;6.132;2022-11-20T11:46:36;39.95;;;26.33;;
48578;SDS011;34357;51.948;6.132;2022-11-20T11:51:36;40.45;;;27.20;;
48578;SDS011;34357;51.948;6.132;2022-11-20T11:54:13;38.85;;;26.45;;
48578;SDS011;34357;51.948;6.132;2022-11-20T11:56:47;43.50;;;28.23;;
48578;SDS011;34357;51.948;6.132;2022-11-20T11:59:16;41.78;;;27.45;;
48578;SDS011;34357;51.948;6.132;2022-11-20T12:01:56;40.72;;;27.38;;
48578;SDS011;34357;51.948;6.132;2022-11-20T12:07:00;35.90;;;24.85;;
48578;SDS011;34357;51.948;6.132;2022-11-20T12:09:37;36.58;;;25.90;;
48578;SDS011;34357;51.948;6.132;2022-11-20T12:12:11;37.30;;;26.63;;
48578;SDS011;34357;51.948;6.132;2022-11-20T12:14:42;41.33;;;25.63;;
48578;SDS011;34357;51.948;6.132;2022-11-20T12:17:12;37.45;;;25.67;;
48578;SDS011;34357;51.948;6.132;2022-11-20T12:19:39;38.45;;;26.17;;
48578;SDS011;34357;51.948;6.132;2022-11-20T12:25:12;44.72;;;28.42;;
48578;SDS011;34357;51.948;6.132;2022-11-20T12:30:23;46.92;;;30.05;;
48578;SDS011;34357;51.948;6.132;2022-11-20T12:44:04;55.65;;;35.58;;
48578;SDS011;34357;51.948;6.132;2022-11-20T12:47:14;62.78;;;37.75;;
48578;SDS011;34357;51.948;6.132;2022-11-20T12:50:06;56.47;;;36.33;;
48578;SDS011;34357;51.948;6.132;2022-11-20T12:55:46;50.75;;;32.45;;
48578;SDS011;34357;51.948;6.132;2022-11-20T13:04:08;52.15;;;33.17;;
48578;SDS011;34357;51.948;6.132;2022-11-20T13:06:46;54.45;;;34.08;;
48578;SDS011;34357;51.948;6.132;2022-11-20T13:09:14;54.65;;;35.78;;
48578;SDS011;34357;51.948;6.132;2022-11-20T13:17:42;53.42;;;34.22;;
48578;SDS011;34357;51.948;6.132;2022-11-20T13:20:18;53.88;;;35.08;;
48578;SDS011;34357;51.948;6.132;2022-11-20T13:22:51;56.53;;;36.58;;
48578;SDS011;34357;51.948;6.132;2022-11-20T13:25:26;53.67;;;36.70;;
48578;SDS011;34357;51.948;6.132;2022-11-20T13:27:52;55.80;;;36.17;;
48578;SDS011;34357;51.948;6.132;2022-11-20T13:30:20;56.85;;;36.22;;
48578;SDS011;34357;51.948;6.132;2022-11-20T13:32:49;59.25;;;36.53;;
48578;SDS011;34357;51.948;6.132;2022-11-20T13:35:25;55.00;;;37.78;;
48578;SDS011;34357;51.948;6.132;2022-11-20T13:37:59;56.45;;;35.17;;
48578;SDS011;34357;51.948;6.132;2022-11-20T13:40:25;50.33;;;33.25;;
48578;SDS011;34357;51.948;6.132;2022-11-20T13:46:04;54.92;;;34.92;;
48578;SDS011;34357;51.948;6.132;2022-11-20T13:48:32;52.72;;;34.83;;
48578;SDS011;34357;51.948;6.132;2022-11-20T13:51:11;54.83;;;35.67;;
48578;SDS011;34357;51.948;6.132;2022-11-20T14:03:27;56.08;;;34.92;;
48578;SDS011;34357;51.948;6.132;2022-11-20T14:05:39;62.97;;;40.00;;
48578;SDS011;34357;51.948;6.132;2022-11-20T14:08:17;65.20;;;40.55;;
48578;SDS011;34357;51.948;6.132;2022-11-20T14:11:12;63.42;;;39.28;;
48578;SDS011;34357;51.948;6.132;2022-11-20T14:13:39;61.17;;;39.60;;
48578;SDS011;34357;51.948;6.132;2022-11-20T14:16:19;60.00;;;39.47;;
48578;SDS011;34357;51.948;6.132;2022-11-20T14:18:45;60.03;;;40.53;;
48578;SDS011;34357;51.948;6.132;2022-11-20T14:21:11;63.25;;;41.35;;
48578;SDS011;34357;51.948;6.132;2022-11-20T14:23:36;62.80;;;39.72;;
48578;SDS011;34357;51.948;6.132;2022-11-20T14:26:03;67.15;;;43.10;;
48578;SDS011;34357;51.948;6.132;2022-11-20T14:28:30;63.63;;;41.80;;
48578;SDS011;34357;51.948;6.132;2022-11-20T14:30:56;68.38;;;43.88;;
48578;SDS011;34357;51.948;6.132;2022-11-20T14:33:23;65.03;;;42.13;;
48578;SDS011;34357;51.948;6.132;2022-11-20T14:35:54;68.40;;;42.03;;
48578;SDS011;34357;51.948;6.132;2022-11-20T14:38:22;67.00;;;42.80;;
48578;SDS011;34357;51.948;6.132;2022-11-20T14:40:51;68.53;;;43.30;;
48578;SDS011;34357;51.948;6.132;2022-11-20T14:43:18;68.72;;;43.90;;
48578;SDS011;34357;51.948;6.132;2022-11-20T14:46:00;71.32;;;44.08;;
48578;SDS011;34357;51.948;6.132;2022-11-20T14:48:40;72.82;;;44.70;;
48578;SDS011;34357;51.948;6.132;2022-11-20T14:51:10;68.00;;;44.13;;
48578;SDS011;34357;51.948;6.132;2022-11-20T14:53:37;72.75;;;46.75;;
48578;SDS011;34357;51.948;6.132;2022-11-20T14:56:02;76.60;;;50.08;;
48578;SDS011;34357;51.948;6.132;2022-11-20T14:58:29;80.32;;;48.20;;
48578;SDS011;34357;51.948;6.132;2022-11-20T15:01:06;76.55;;;48.50;;
48578;SDS011;34357;51.948;6.132;2022-11-20T15:03:40;72.45;;;46.50;;
48578;SDS011;34357;51.948;6.132;2022-11-20T15:06:06;77.63;;;47.05;;
48578;SDS011;34357;51.948;6.132;2022-11-20T15:08:35;68.88;;;42.65;;
48578;SDS011;34357;51.948;6.132;2022-11-20T15:11:01;72.80;;;42.83;;
48578;SDS011;34357;51.948;6.132;2022-11-20T15:13:34;71.85;;;43.17;;
48578;SDS011;34357;51.948;6.132;2022-11-20T15:16:03;69.75;;;44.67;;
48578;SDS011;34357;51.948;6.132;2022-11-20T15:18:41;80.13;;;46.28;;
48578;SDS011;34357;51.948;6.132;2022-11-20T15:21:11;76.78;;;46.95;;
48578;SDS011;34357;51.948;6.132;2022-11-20T15:23:39;76.28;;;45.08;;
48578;SDS011;34357;51.948;6.132;2022-11-20T15:26:05;78.70;;;45.13;;
48578;SDS011;34357;51.948;6.132;2022-11-20T15:28:33;78.93;;;46.80;;
48578;SDS011;34357;51.948;6.132;2022-11-20T15:31:02;83.75;;;50.60;;
48578;SDS011;34357;51.948;6.132;2022-11-20T15:33:29;81.18;;;46.92;;
48578;SDS011;34357;51.948;6.132;2022-11-20T15:35:56;80.97;;;47.42;;
48578;SDS011;34357;51.948;6.132;2022-11-20T15:38:22;80.82;;;47.65;;
48578;SDS011;34357;51.948;6.132;2022-11-20T15:40:48;79.97;;;45.80;;
48578;SDS011;34357;51.948;6.132;2022-11-20T15:43:13;79.68;;;45.47;;
48578;SDS011;34357;51.948;6.132;2022-11-20T15:45:43;86.40;;;47.42;;
48578;SDS011;34357;51.948;6.132;2022-11-20T15:48:12;75.55;;;45.33;;
48578;SDS011;34357;51.948;6.132;2022-11-20T15:50:42;78.55;;;46.03;;
48578;SDS011;34357;51.948;6.132;2022-11-20T15:53:29;84.13;;;46.97;;
48578;SDS011;34357;51.948;6.132;2022-11-20T15:55:55;75.28;;;45.33;;
48578;SDS011;34357;51.948;6.132;2022-11-20T15:58:20;84.07;;;46.45;;
48578;SDS011;34357;51.948;6.132;2022-11-20T16:00:48;89.15;;;49.10;;
48578;SDS011;34357;51.948;6.132;2022-11-20T16:03:14;90.72;;;48.95;;
48578;SDS011;34357;51.948;6.132;2022-11-20T16:05:41;87.38;;;47.30;;
48578;SDS011;34357;51.948;6.132;2022-11-20T16:08:07;93.78;;;48.58;;
48578;SDS011;34357;51.948;6.132;2022-11-20T16:10:33;85.38;;;47.90;;
48578;SDS011;34357;51.948;6.132;2022-11-20T16:12:59;85.18;;;48.47;;
48578;SDS011;34357;51.948;6.132;2022-11-20T16:15:45;86.72;;;47.92;;
48578;SDS011;34357;51.948;6.132;2022-11-20T16:18:18;83.97;;;46.83;;